createdAt,value
2022-11-05T00:00:01.904Z,3.50
2022-11-05T00:04:50.333Z,2.60
2022-11-05T00:09:16.026Z,2.60
2022-11-05T00:13:41.276Z,2.40
2022-11-05T00:17:49.588Z,1.90
2022-11-05T00:22:15.079Z,1.40
2022-11-05T00:26:22.558Z,1.30
2022-11-05T00:30:31.874Z,1.60
2022-11-05T00:34:39.327Z,1.70
2022-11-05T00:38:47.542Z,1.90
2022-11-05T00:43:12.525Z,2.00
2022-11-05T00:47:39.582Z,1.80
2022-11-05T00:51:48.102Z,1.90
2022-11-05T00:55:55.515Z,1.90
2022-11-05T01:00:03.212Z,2.00
2022-11-05T01:04:11.598Z,2.20
2022-11-05T01:08:21.285Z,1.80
2022-11-05T01:12:29.134Z,1.80
2022-11-05T01:16:38.041Z,1.80
2022-11-05T01:20:45.985Z,1.50
2022-11-05T01:24:53.987Z,1.50
2022-11-05T01:29:02.044Z,1.80
2022-11-05T01:33:10.428Z,1.60
2022-11-05T01:37:18.456Z,1.60
2022-11-05T01:41:26.409Z,1.60
2022-11-05T01:45:34.180Z,1.40
2022-11-05T01:49:41.861Z,1.20
2022-11-05T01:53:52.295Z,1.50
2022-11-05T01:58:00.945Z,1.60
2022-11-05T02:02:10.206Z,1.70
2022-11-05T02:06:22.098Z,1.20
2022-11-05T02:10:30.777Z,1.40
2022-11-05T02:14:38.182Z,1.40
2022-11-05T02:18:52.616Z,1.30
2022-11-05T02:23:20.307Z,1.20
2022-11-05T02:27:53.985Z,1.00
2022-11-05T02:32:05.713Z,1.30
2022-11-05T02:36:35.644Z,1.20
2022-11-05T02:40:51.559Z,1.20
2022-11-05T02:45:02.164Z,1.20
2022-11-05T02:49:20.009Z,1.30
2022-11-05T02:53:34.347Z,1.20
2022-11-05T02:57:47.348Z,1.30
2022-11-05T03:01:55.931Z,1.30
2022-11-05T03:06:20.415Z,1.40
2022-11-05T03:10:43.467Z,1.30
2022-11-05T03:14:57.837Z,1.10
2022-11-05T03:19:12.175Z,1.20
2022-11-05T03:23:26.112Z,1.30
2022-11-05T03:27:35.840Z,1.40
2022-11-05T03:31:44.924Z,1.20
2022-11-05T03:35:56.195Z,1.20
2022-11-05T03:40:05.732Z,1.20
2022-11-05T03:44:15.711Z,1.20
2022-11-05T03:48:24.035Z,1.10
2022-11-05T03:52:35.260Z,1.30
2022-11-05T03:56:45.338Z,1.20
2022-11-05T04:00:54.028Z,1.00
2022-11-05T04:05:01.639Z,1.00
2022-11-05T04:09:26.606Z,1.00
2022-11-05T04:13:37.390Z,1.50
2022-11-05T04:17:45.169Z,1.20
2022-11-05T04:22:10.426Z,1.10
2022-11-05T04:26:23.751Z,1.30
2022-11-05T04:30:31.483Z,1.30
2022-11-05T04:34:39.013Z,1.50
2022-11-05T04:38:47.073Z,1.70
2022-11-05T04:42:57.094Z,1.30
2022-11-05T04:47:04.650Z,1.50
2022-11-05T04:51:12.867Z,1.70
2022-11-05T04:55:21.459Z,1.60
2022-11-05T04:59:30.465Z,1.80
2022-11-05T05:03:39.456Z,1.80
2022-11-05T05:07:48.007Z,1.90
2022-11-05T05:11:55.560Z,1.90
2022-11-05T05:16:08.821Z,1.60
2022-11-05T05:20:34.549Z,1.70
2022-11-05T05:24:42.471Z,2.10
2022-11-05T05:28:51.470Z,1.80
2022-11-05T05:33:01.023Z,2.00
2022-11-05T05:37:08.819Z,1.70
2022-11-05T05:41:18.371Z,2.00
2022-11-05T05:45:26.541Z,1.70
2022-11-05T05:49:34.332Z,1.50
2022-11-05T05:53:42.030Z,1.60
2022-11-05T05:57:49.206Z,1.90
2022-11-05T06:01:57.493Z,1.50
2022-11-05T06:06:08.187Z,2.00
2022-11-05T06:10:17.264Z,1.40
2022-11-05T06:14:25.528Z,1.60
2022-11-05T06:18:33.090Z,1.50
2022-11-05T06:25:15.682Z,1.50
2022-11-05T06:29:24.332Z,1.60
2022-11-05T06:33:32.577Z,1.50
2022-11-05T06:37:40.748Z,1.60
2022-11-05T06:42:16.747Z,1.40
2022-11-05T06:46:15.872Z,1.50
2022-11-05T06:50:23.615Z,1.50
2022-11-05T06:54:32.590Z,1.60
2022-11-05T06:58:40.243Z,1.80
2022-11-05T07:02:48.928Z,2.00
2022-11-05T07:07:01.076Z,2.10
2022-11-05T07:11:13.363Z,3.60
2022-11-05T07:15:21.243Z,14.80
2022-11-05T07:19:28.723Z,8.40
2022-11-05T07:23:36.310Z,4.20
2022-11-05T07:27:44.766Z,4.30
2022-11-05T07:31:52.193Z,4.60
2022-11-05T07:36:00.934Z,4.30
2022-11-05T07:40:10.995Z,4.00
2022-11-05T07:44:19.123Z,4.00
2022-11-05T07:48:26.859Z,3.60
2022-11-05T07:52:35.550Z,3.60
2022-11-05T07:56:43.436Z,3.70
2022-11-05T08:00:51.123Z,3.30
2022-11-05T08:04:59.528Z,4.20
2022-11-05T08:09:08.579Z,3.90
2022-11-05T08:13:16.909Z,3.50
2022-11-05T08:17:24.513Z,3.10
2022-11-05T08:21:31.823Z,3.00
2022-11-05T08:25:40.161Z,2.80
2022-11-05T08:29:49.123Z,3.00
2022-11-05T08:34:02.173Z,3.00
2022-11-05T08:38:13.732Z,2.70
2022-11-05T08:42:21.981Z,1.80
2022-11-05T08:46:29.994Z,2.20
2022-11-05T08:50:38.565Z,2.00
2022-11-05T08:54:46.182Z,2.20
2022-11-05T08:58:53.497Z,2.20
2022-11-05T09:03:03.965Z,2.40
2022-11-05T09:07:12.162Z,2.80
2022-11-05T09:11:19.739Z,2.70
2022-11-05T09:15:28.239Z,2.50
2022-11-05T09:19:39.833Z,3.00
2022-11-05T09:23:48.540Z,2.70
2022-11-05T09:27:56.758Z,2.40
2022-11-05T09:32:09.981Z,2.40
2022-11-05T09:36:18.248Z,2.60
2022-11-05T09:40:26.802Z,2.50
2022-11-05T09:44:38.394Z,2.90
2022-11-05T09:48:47.716Z,2.90
2022-11-05T09:52:55.351Z,2.70
2022-11-05T09:57:04.929Z,2.20
2022-11-05T10:01:15.984Z,2.20
2022-11-05T10:05:24.374Z,2.60
2022-11-05T10:09:35.640Z,2.40
2022-11-05T10:13:46.180Z,2.00
2022-11-05T10:17:58.273Z,2.20
2022-11-05T10:22:13.445Z,2.50
2022-11-05T10:26:23.442Z,2.30
2022-11-05T10:30:31.304Z,2.30
2022-11-05T10:34:40.592Z,2.20
2022-11-05T10:38:48.837Z,2.60
2022-11-05T10:43:04.629Z,2.30
2022-11-05T10:47:31.387Z,2.80
2022-11-05T10:51:39.196Z,2.60
2022-11-05T10:55:48.361Z,2.70
2022-11-05T10:59:55.711Z,3.00
2022-11-05T11:04:22.577Z,2.70
2022-11-05T11:08:31.031Z,2.90
2022-11-05T11:12:41.612Z,2.70
2022-11-05T11:16:50.839Z,2.90
2022-11-05T11:21:08.855Z,3.00
2022-11-05T11:25:27.950Z,2.90
2022-11-05T11:29:41.980Z,3.00
2022-11-05T11:33:57.247Z,2.60
2022-11-05T11:38:05.287Z,2.60
2022-11-05T11:42:24.894Z,2.60
2022-11-05T11:46:34.597Z,2.70
2022-11-05T11:50:44.532Z,2.60
2022-11-05T11:54:53.332Z,2.30
2022-11-05T11:59:05.622Z,2.50
2022-11-05T12:03:27.116Z,2.50
2022-11-05T12:07:44.819Z,2.20
2022-11-05T12:12:00.335Z,2.10
2022-11-05T12:16:13.417Z,2.60
2022-11-05T12:20:30.264Z,2.20
2022-11-05T12:24:57.542Z,2.60
2022-11-05T12:29:32.844Z,2.20
2022-11-05T12:33:51.265Z,2.50
2022-11-05T12:38:08.179Z,2.20
2022-11-05T12:42:29.020Z,2.30
2022-11-05T12:46:41.894Z,1.80
2022-11-05T12:50:54.599Z,2.40
2022-11-05T12:55:09.694Z,1.90
2022-11-05T12:59:20.923Z,2.60
2022-11-05T13:03:38.091Z,2.10
2022-11-05T13:07:51.008Z,2.20
2022-11-05T13:12:01.016Z,1.80
2022-11-05T13:16:12.289Z,1.80
2022-11-05T13:20:23.633Z,2.00
2022-11-05T13:24:36.161Z,2.30
2022-11-05T13:28:49.368Z,2.50
2022-11-05T13:33:01.608Z,2.40
2022-11-05T13:37:28.276Z,2.70
2022-11-05T13:41:45.032Z,3.00
2022-11-05T13:46:18.280Z,2.80
2022-11-05T13:51:02.524Z,2.60
2022-11-05T13:55:37.878Z,2.80
2022-11-05T13:59:58.692Z,2.70
2022-11-05T14:04:08.741Z,2.90
2022-11-05T14:08:21.382Z,2.70
2022-11-05T14:12:33.435Z,2.50
2022-11-05T14:16:52.459Z,3.10
2022-11-05T14:21:04.648Z,3.00
2022-11-05T14:26:01.098Z,2.80
2022-11-05T14:30:41.097Z,2.60
2022-11-05T14:34:55.192Z,3.10
2022-11-05T14:39:16.084Z,2.70
2022-11-05T14:43:26.906Z,2.80
2022-11-05T14:47:37.485Z,2.80
2022-11-05T14:51:47.626Z,2.70
2022-11-05T14:56:02.414Z,2.70
2022-11-05T15:00:45.049Z,3.20
2022-11-05T15:04:53.457Z,3.40
2022-11-05T15:09:22.975Z,3.70
2022-11-05T15:13:35.130Z,4.60
2022-11-05T15:17:51.752Z,4.40
2022-11-05T15:22:01.286Z,4.20
2022-11-05T15:26:14.149Z,4.80
2022-11-05T15:30:23.858Z,5.00
2022-11-05T15:34:32.671Z,4.70
2022-11-05T15:38:51.978Z,4.70
2022-11-05T15:43:16.645Z,5.10
2022-11-05T15:47:26.563Z,4.70
2022-11-05T15:51:38.039Z,5.80
2022-11-05T15:55:53.463Z,5.20
2022-11-05T16:00:02.579Z,4.90
2022-11-05T16:04:18.514Z,6.20
2022-11-05T16:08:28.509Z,15.70
2022-11-05T16:12:37.883Z,18.30
2022-11-05T16:16:52.058Z,22.80
2022-11-05T16:21:08.957Z,18.70
2022-11-05T16:25:30.481Z,17.30
2022-11-05T16:29:40.153Z,15.30
2022-11-05T16:33:48.548Z,13.60
2022-11-05T16:37:56.134Z,18.10
2022-11-05T16:42:03.849Z,16.90
2022-11-05T16:46:15.790Z,16.60
2022-11-05T16:50:26.503Z,17.00
2022-11-05T16:54:34.502Z,15.80
2022-11-05T16:58:46.895Z,13.00
2022-11-05T17:02:55.790Z,9.80
2022-11-05T17:07:03.940Z,9.80
2022-11-05T17:11:12.888Z,9.00
2022-11-05T17:15:23.488Z,9.30
2022-11-05T17:19:31.360Z,9.80
2022-11-05T17:23:39.421Z,13.40
2022-11-05T17:27:47.215Z,13.60
2022-11-05T17:31:55.244Z,12.50
2022-11-05T17:36:07.214Z,11.00
2022-11-05T17:40:20.156Z,11.20
2022-11-05T17:44:27.689Z,11.60
2022-11-05T17:48:35.825Z,11.00
2022-11-05T17:52:44.229Z,11.30
2022-11-05T17:56:52.301Z,11.50
2022-11-05T18:00:59.527Z,10.30
2022-11-05T18:05:14.196Z,13.70
2022-11-05T18:09:23.382Z,16.90
2022-11-05T18:13:31.084Z,19.30
2022-11-05T18:17:39.256Z,22.60
2022-11-05T18:21:48.460Z,15.20
2022-11-05T18:25:57.827Z,17.20
2022-11-05T18:30:08.005Z,23.00
2022-11-05T18:34:16.553Z,24.00
2022-11-05T18:38:24.723Z,17.30
2022-11-05T18:42:33.192Z,16.00
2022-11-05T18:46:57.773Z,14.20
2022-11-05T18:51:10.910Z,12.10
2022-11-05T18:55:19.190Z,12.40
2022-11-05T18:59:37.745Z,12.50
2022-11-05T19:03:49.429Z,12.60
2022-11-05T19:07:57.668Z,11.20
2022-11-05T19:12:10.346Z,10.00
2022-11-05T19:16:20.017Z,10.10
2022-11-05T19:20:29.649Z,13.00
2022-11-05T19:24:39.676Z,11.10
2022-11-05T19:28:47.595Z,10.80
2022-11-05T19:32:55.464Z,10.30
2022-11-05T19:37:06.879Z,8.90
2022-11-05T19:41:18.520Z,8.50
2022-11-05T19:49:53.655Z,8.70
2022-11-05T19:54:01.805Z,15.00
2022-11-05T19:58:11.128Z,16.40
2022-11-05T20:02:20.442Z,15.50
2022-11-05T20:06:32.063Z,17.60
2022-11-05T20:10:41.289Z,19.50
2022-11-05T20:14:49.370Z,19.10
2022-11-05T20:18:58.742Z,21.70
2022-11-05T20:23:35.190Z,22.20
2022-11-05T20:27:45.282Z,28.10
2022-11-05T20:31:53.988Z,34.80
2022-11-05T20:36:09.167Z,43.80
2022-11-05T20:40:17.734Z,44.40
2022-11-05T20:44:25.721Z,50.50
2022-11-05T20:48:35.372Z,36.50
2022-11-05T20:52:42.929Z,24.80
2022-11-05T20:56:50.406Z,18.50
2022-11-05T21:00:59.320Z,14.40
2022-11-05T21:05:08.407Z,14.90
2022-11-05T21:09:16.884Z,16.50
2022-11-05T21:13:25.049Z,20.80
2022-11-05T21:17:32.494Z,31.10
2022-11-05T21:21:41.411Z,29.80
2022-11-05T21:25:49.351Z,33.00
2022-11-05T21:29:57.081Z,28.20
2022-11-05T21:34:07.383Z,27.90
2022-11-05T21:38:17.314Z,26.50
2022-11-05T21:42:24.978Z,27.50
2022-11-05T21:46:32.669Z,30.60
2022-11-05T21:51:01.117Z,29.80
2022-11-05T21:55:28.195Z,20.20
2022-11-05T21:59:52.422Z,15.60
2022-11-05T22:04:03.030Z,16.30
2022-11-05T22:08:11.976Z,15.70
2022-11-05T22:12:20.081Z,18.50
2022-11-05T22:16:27.506Z,18.20
2022-11-05T22:20:35.315Z,19.20
2022-11-05T22:24:43.412Z,19.60
2022-11-05T22:28:51.220Z,19.60
2022-11-05T22:32:58.918Z,18.10
2022-11-05T22:37:06.559Z,20.00
2022-11-05T22:41:17.569Z,17.40
2022-11-05T22:45:25.324Z,18.80
2022-11-05T22:49:33.335Z,19.60
2022-11-05T22:53:41.804Z,20.20
2022-11-05T22:57:49.164Z,17.90
2022-11-05T23:01:57.098Z,16.90
2022-11-05T23:06:07.730Z,17.90
2022-11-05T23:10:32.969Z,15.40
2022-11-05T23:14:41.338Z,14.80
2022-11-05T23:19:06.214Z,15.70
2022-11-05T23:23:32.268Z,14.30
2022-11-05T23:27:42.160Z,14.40
2022-11-05T23:32:08.124Z,15.90
2022-11-05T23:36:34.575Z,16.50
2022-11-05T23:40:56.109Z,14.10
2022-11-05T23:45:21.341Z,16.00
2022-11-05T23:49:30.484Z,14.10
2022-11-05T23:53:41.658Z,13.70
2022-11-05T23:57:49.304Z,13.20
